Time;durP1;ratioP1;P1;durP2;ratioP2;P2;SDS_P1;SDS_P2;PMS_P1;PMS_P2;Temp;Humidity;BMP_temperature;BMP_pressure;BME280_temperature;BME280_humidity;BME280_pressure;Samples;Min_cycle;Max_cycle;Signal;HPM_P1;HPM_P2
2024/01/28 00:02:24;;;;;;;28.80;13.43;;;1.30;99.90;;;;;;6215516;22;20099;-79
2024/01/28 00:05:16;;;;;;;27.23;12.32;;;1.40;99.90;;;;;;6204139;23;20056;-79
2024/01/28 00:08:10;;;;;;;21.70;12.45;;;1.40;99.90;;;;;;6209243;23;20032;-81
2024/01/28 00:11:05;;;;;;;26.10;13.38;;;1.40;99.90;;;;;;6220528;23;20060;-83
2024/01/28 00:13:58;;;;;;;20.48;12.00;;;1.40;99.90;;;;;;6208276;23;20035;-80
2024/01/28 00:16:53;;;;;;;24.95;12.80;;;1.30;99.90;;;;;;6218267;23;20034;-78
2024/01/28 00:19:49;;;;;;;24.73;12.48;;;1.20;99.90;;;;;;6204924;23;20021;-81
2024/01/28 00:22:49;;;;;;;29.13;12.98;;;1.10;99.90;;;;;;6208855;23;20066;-81
2024/01/28 00:25:40;;;;;;;29.02;13.15;;;1.10;99.90;;;;;;6207913;23;20166;-82
2024/01/28 00:28:31;;;;;;;23.08;12.23;;;1.10;99.90;;;;;;6185970;23;20032;-81
2024/01/28 00:31:28;;;;;;;27.33;13.05;;;1.00;99.90;;;;;;6204336;23;20040;-78
2024/01/28 00:34:18;;;;;;;22.60;12.60;;;0.90;99.90;;;;;;6204649;23;20024;-81
2024/01/28 00:37:10;;;;;;;;;;;0.80;99.90;;;;;;6207571;23;20099;-81
2024/01/28 00:40:03;;;;;;;26.05;13.77;;;0.70;99.90;;;;;;6206972;23;19950;-82
2024/01/28 00:42:53;;;;;;;23.13;13.27;;;0.60;99.90;;;;;;6210908;23;20111;-78
2024/01/28 00:45:43;;;;;;;28.63;13.05;;;0.50;99.90;;;;;;6214859;23;20044;-81
2024/01/28 00:48:36;;;;;;;18.05;9.68;;;0.30;99.90;;;;;;6215767;23;20033;-78
2024/01/28 00:51:40;;;;;;;27.15;14.27;;;0.20;99.90;;;;;;6195488;23;20029;-82
2024/01/28 00:54:34;;;;;;;30.13;13.73;;;0.00;99.90;;;;;;6207469;23;20044;-78
2024/01/28 00:57:31;;;;;;;31.27;13.88;;;-0.10;99.90;;;;;;6190984;23;20024;-77
2024/01/28 01:00:32;;;;;;;30.10;13.38;;;-0.30;99.90;;;;;;6197975;23;20034;-80
2024/01/28 01:03:20;;;;;;;30.90;14.30;;;-0.50;99.90;;;;;;6194017;23;20024;-81
2024/01/28 01:06:14;;;;;;;25.60;14.38;;;-0.60;99.90;;;;;;6213596;23;20583;-80
2024/01/28 01:09:07;;;;;;;27.02;14.52;;;-0.60;99.90;;;;;;6205726;23;20094;-80
2024/01/28 01:11:55;;;;;;;33.13;15.52;;;-0.80;99.90;;;;;;6185664;23;20082;-80
2024/01/28 01:14:45;;;;;;;36.42;16.88;;;-0.70;99.90;;;;;;6208793;23;20029;-81
2024/01/28 01:17:36;;;;;;;33.05;17.52;;;-0.80;99.90;;;;;;6181953;23;20032;-82
2024/01/28 01:20:28;;;;;;;36.13;16.75;;;-0.80;99.90;;;;;;6195159;23;20029;-78
2024/01/28 01:23:20;;;;;;;31.02;15.48;;;-0.90;99.90;;;;;;6225570;23;20021;-78
2024/01/28 01:26:08;;;;;;;28.60;14.02;;;-1.10;99.90;;;;;;6226945;23;20048;-80
2024/01/28 01:28:58;;;;;;;35.35;16.90;;;-1.20;99.90;;;;;;6227367;23;20013;-77
2024/01/28 01:31:54;;;;;;;28.83;16.17;;;-1.20;99.90;;;;;;6226200;23;20020;-77
2024/01/28 01:34:55;;;;;;;37.63;17.90;;;-1.20;99.90;;;;;;6207840;23;20013;-78
2024/01/28 01:37:48;;;;;;;30.83;15.50;;;-1.20;99.90;;;;;;6228130;22;20079;-80
2024/01/28 01:40:35;;;;;;;41.67;16.90;;;-1.30;99.90;;;;;;6192937;23;20024;-79
2024/01/28 01:43:32;;;;;;;36.55;15.73;;;-1.30;99.90;;;;;;6213934;23;20119;-81
2024/01/28 01:46:22;;;;;;;35.70;17.60;;;-1.30;99.90;;;;;;6203654;23;20107;-82
2024/01/28 01:49:13;;;;;;;34.53;16.92;;;-1.20;99.90;;;;;;6179929;23;20036;-81
2024/01/28 01:52:16;;;;;;;30.08;14.43;;;-1.30;99.90;;;;;;6202840;23;20578;-80
2024/01/28 01:55:26;;;;;;;30.20;14.43;;;-1.10;99.90;;;;;;6202246;23;20056;-79
2024/01/28 01:58:24;;;;;;;34.20;15.70;;;-0.90;99.90;;;;;;6181023;23;20057;-80
2024/01/28 02:01:18;;;;;;;34.00;15.68;;;-0.70;99.90;;;;;;6179281;23;20032;-79
2024/01/28 02:04:15;;;;;;;29.35;16.25;;;-0.60;99.90;;;;;;6201908;23;20017;-81
2024/01/28 02:07:14;;;;;;;34.55;16.58;;;-0.50;99.90;;;;;;6181641;23;20032;-80
2024/01/28 02:10:05;;;;;;;36.22;17.38;;;-0.50;99.90;;;;;;6202084;23;20024;-83
2024/01/28 02:13:01;;;;;;;29.30;15.95;;;-0.40;99.90;;;;;;6203798;23;20028;-80
2024/01/28 02:15:53;;;;;;;34.08;16.67;;;-0.30;99.90;;;;;;6185097;23;20028;-79
2024/01/28 02:18:52;;;;;;;33.80;15.68;;;-0.20;99.90;;;;;;6211738;23;20025;-83
2024/01/28 02:21:52;;;;;;;36.50;15.15;;;-0.30;99.90;;;;;;6213547;23;20047;-79
2024/01/28 02:24:46;;;;;;;32.30;15.30;;;-0.30;99.90;;;;;;6200091;23;20031;-81
2024/01/28 02:27:46;;;;;;;29.05;14.98;;;-0.30;99.90;;;;;;6205518;23;20032;-80
2024/01/28 02:30:36;;;;;;;;;;;-0.30;99.90;;;;;;6210447;23;20081;-78
2024/01/28 02:33:37;;;;;;;37.45;14.85;;;-0.30;99.90;;;;;;6181572;23;19916;-81
2024/01/28 02:36:28;;;;;;;23.05;14.50;;;-0.20;99.90;;;;;;6214618;23;20397;-77
2024/01/28 02:39:29;;;;;;;27.50;14.23;;;-0.20;99.90;;;;;;6220883;23;20028;-81
2024/01/28 02:42:30;;;;;;;31.95;14.30;;;-0.20;99.90;;;;;;6224286;23;20094;-79
2024/01/28 02:45:23;;;;;;;34.42;14.43;;;-0.40;99.90;;;;;;6197609;23;20116;-83
2024/01/28 02:48:13;;;;;;;29.45;15.05;;;-0.40;99.90;;;;;;6207165;23;20096;-80
2024/01/28 02:51:05;;;;;;;34.15;15.93;;;-0.60;99.90;;;;;;6181678;23;20043;-81
2024/01/28 02:53:55;;;;;;;26.73;14.07;;;-0.70;99.90;;;;;;6204509;23;20347;-80
2024/01/28 02:56:45;;;;;;;27.13;13.13;;;-0.70;99.90;;;;;;6214023;23;20035;-82
2024/01/28 02:59:33;;;;;;;28.85;14.00;;;-0.60;99.90;;;;;;6204817;23;20379;-81
2024/01/28 03:02:27;;;;;;;27.98;13.75;;;-0.70;99.90;;;;;;6180369;23;20298;-81
2024/01/28 03:05:19;;;;;;;30.00;15.25;;;-0.80;99.90;;;;;;6180618;23;20031;-80
2024/01/28 03:08:26;;;;;;;26.38;14.57;;;-0.80;99.90;;;;;;6205218;23;20028;-80
2024/01/28 03:11:13;;;;;;;31.42;15.30;;;-0.70;99.90;;;;;;6204290;23;20039;-79
2024/01/28 03:14:14;;;;;;;33.03;14.32;;;-0.70;99.90;;;;;;6204915;23;20083;-82
2024/01/28 03:17:02;;;;;;;27.48;13.73;;;-0.70;99.90;;;;;;6180886;23;20025;-80
2024/01/28 03:19:51;;;;;;;33.10;15.02;;;-0.80;99.90;;;;;;6202979;23;20024;-80
2024/01/28 03:22:55;;;;;;;27.63;14.40;;;-0.80;99.90;;;;;;6202971;23;20332;-82
2024/01/28 03:25:44;;;;;;;22.52;13.48;;;-0.80;99.90;;;;;;6205280;23;20036;-82
2024/01/28 03:28:33;;;;;;;29.27;14.48;;;-0.90;99.90;;;;;;6206397;23;20028;-80
2024/01/28 03:31:21;;;;;;;31.80;14.45;;;-1.10;99.90;;;;;;6204672;23;20555;-79
2024/01/28 03:34:14;;;;;;;30.42;13.75;;;-1.30;99.90;;;;;;6207404;23;20464;-80
2024/01/28 03:37:06;;;;;;;24.92;14.07;;;-1.30;99.90;;;;;;6217232;23;20111;-82
2024/01/28 03:40:10;;;;;;;25.23;13.38;;;-1.40;99.90;;;;;;6208118;23;20047;-81
2024/01/28 03:43:01;;;;;;;29.45;15.40;;;-1.40;99.90;;;;;;6189270;23;20020;-78
2024/01/28 03:45:51;;;;;;;32.88;15.00;;;-1.40;99.90;;;;;;6207616;23;20020;-79
2024/01/28 03:48:53;;;;;;;32.75;15.85;;;-1.40;99.90;;;;;;6209417;23;20116;-77
2024/01/28 03:51:45;;;;;;;35.60;15.63;;;-1.30;99.90;;;;;;6220212;23;20342;-81
2024/01/28 03:54:39;;;;;;;31.77;15.13;;;-1.20;99.90;;;;;;6227031;23;20032;-78
2024/01/28 03:57:39;;;;;;;35.75;16.27;;;-1.20;99.90;;;;;;6230444;23;20029;-78
2024/01/28 04:00:29;;;;;;;31.00;14.80;;;-1.10;99.90;;;;;;6201219;23;20555;-81
2024/01/28 04:03:25;;;;;;;29.02;15.23;;;-0.80;99.90;;;;;;6212258;23;20044;-78
2024/01/28 04:06:16;;;;;;;30.75;15.95;;;-0.60;99.90;;;;;;6216850;23;20163;-81
2024/01/28 04:09:15;;;;;;;28.25;14.95;;;-0.40;99.90;;;;;;6211953;23;20040;-80
2024/01/28 04:12:04;;;;;;;39.97;16.77;;;-0.30;99.90;;;;;;6205009;23;20024;-78
2024/01/28 04:14:52;;;;;;;34.38;15.07;;;-0.30;99.90;;;;;;6206233;23;20025;-81
2024/01/28 04:17:46;;;;;;;32.75;15.38;;;-0.40;99.90;;;;;;6203766;23;20388;-82
2024/01/28 04:20:34;;;;;;;30.92;15.57;;;-0.40;99.90;;;;;;6204464;23;20039;-78
2024/01/28 04:23:32;;;;;;;31.08;15.07;;;-0.30;99.90;;;;;;6184617;23;20455;-80
2024/01/28 04:26:20;;;;;;;36.50;16.40;;;0.00;99.90;;;;;;6205261;23;20083;-82
2024/01/28 04:29:21;;;;;;;31.23;15.20;;;0.00;99.90;;;;;;6204881;23;20075;-80
2024/01/28 04:32:11;;;;;;;26.48;14.80;;;0.00;99.90;;;;;;6202152;23;20029;-81
2024/01/28 04:35:02;;;;;;;34.95;15.38;;;0.20;99.90;;;;;;6184733;23;20027;-81
2024/01/28 04:37:49;;;;;;;30.10;14.43;;;0.30;99.90;;;;;;6205240;23;20368;-82
2024/01/28 04:40:37;;;;;;;37.60;14.52;;;0.40;99.90;;;;;;6182620;23;20020;-81
2024/01/28 04:43:26;;;;;;;32.17;14.18;;;0.40;99.90;;;;;;6206732;23;20501;-81
2024/01/28 04:46:19;;;;;;;27.60;14.25;;;0.40;99.90;;;;;;6204402;23;20537;-81
2024/01/28 04:49:08;;;;;;;34.08;13.80;;;0.30;99.90;;;;;;6181926;23;20412;-83
2024/01/28 04:52:07;;;;;;;32.17;13.85;;;0.30;99.90;;;;;;6203901;23;20017;-80
2024/01/28 04:54:58;;;;;;;29.92;13.98;;;0.30;99.90;;;;;;6210882;23;20039;-76
2024/01/28 04:57:45;;;;;;;26.38;14.27;;;0.10;99.90;;;;;;6215544;23;20027;-79
2024/01/28 05:00:33;;;;;;;26.05;13.15;;;0.00;99.90;;;;;;6191523;23;20454;-81
2024/01/28 05:03:27;;;;;;;23.30;12.23;;;-0.10;99.90;;;;;;6173017;23;20032;-76
2024/01/28 05:06:14;;;;;;;24.05;11.13;;;-0.20;99.90;;;;;;6213842;23;20028;-80
2024/01/28 05:09:10;;;;;;;20.45;11.57;;;-0.40;99.90;;;;;;6217066;23;20039;-81
2024/01/28 05:12:06;;;;;;;23.75;11.25;;;-0.40;99.90;;;;;;6209325;23;20094;-81
2024/01/28 05:15:06;;;;;;;28.58;11.55;;;-0.60;99.90;;;;;;6204444;23;20032;-80
2024/01/28 05:18:00;;;;;;;19.88;10.98;;;-0.70;99.90;;;;;;6202794;23;20068;-79
2024/01/28 05:20:48;;;;;;;;;;;-0.70;99.90;;;;;;6202266;23;20021;-80
2024/01/28 05:23:41;;;;;;;20.50;11.65;;;-0.70;99.90;;;;;;6205785;23;19926;-80
2024/01/28 05:26:32;;;;;;;19.50;10.57;;;-0.90;99.90;;;;;;6214687;23;20364;-82
2024/01/28 05:29:20;;;;;;;22.35;10.85;;;-1.00;99.90;;;;;;6196659;22;20032;-81
2024/01/28 05:32:12;;;;;;;18.80;10.50;;;-1.10;99.90;;;;;;6206043;23;20035;-78
2024/01/28 05:35:02;;;;;;;17.67;11.50;;;-1.20;99.90;;;;;;6220797;23;20020;-78
2024/01/28 05:37:51;;;;;;;26.35;11.05;;;-1.30;99.90;;;;;;6227051;22;20326;-79
2024/01/28 05:40:44;;;;;;;21.98;10.80;;;-1.30;99.90;;;;;;6229188;23;20039;-78
2024/01/28 05:43:32;;;;;;;24.60;11.00;;;-1.30;99.90;;;;;;6216752;22;20034;-81
2024/01/28 05:46:25;;;;;;;22.25;11.05;;;-1.10;99.90;;;;;;6184032;23;20125;-78
2024/01/28 05:49:22;;;;;;;21.10;11.68;;;-1.00;99.90;;;;;;6200295;23;20021;-83
2024/01/28 05:52:09;;;;;;;20.98;12.32;;;-0.80;99.90;;;;;;6203103;23;20021;-80
2024/01/28 05:54:59;;;;;;;22.48;11.35;;;-0.80;99.90;;;;;;6186599;23;20047;-80
2024/01/28 05:57:54;;;;;;;22.15;12.15;;;-0.90;99.90;;;;;;6222350;23;20412;-78
2024/01/28 06:00:45;;;;;;;27.38;12.32;;;-1.10;99.90;;;;;;6231784;23;20071;-76
2024/01/28 06:03:37;;;;;;;21.38;11.60;;;-1.30;99.90;;;;;;6211945;23;20035;-81
2024/01/28 06:06:27;;;;;;;31.17;12.40;;;-1.40;99.90;;;;;;6211262;23;20024;-82
2024/01/28 06:09:15;;;;;;;26.23;12.30;;;-1.40;99.90;;;;;;6204305;23;20028;-80
2024/01/28 06:12:07;;;;;;;22.02;12.23;;;-1.60;99.90;;;;;;6203232;23;20031;-80
2024/01/28 06:15:04;;;;;;;24.48;11.95;;;-1.60;99.90;;;;;;6194370;23;20407;-80
2024/01/28 06:17:56;;;;;;;21.27;12.10;;;-1.80;99.90;;;;;;6206866;23;20103;-83
2024/01/28 06:20:46;;;;;;;24.98;12.27;;;-1.90;99.90;;;;;;6205867;23;20024;-80
2024/01/28 06:23:36;;;;;;;22.15;12.48;;;-2.00;99.90;;;;;;6181932;23;20063;-81
2024/01/28 06:26:37;;;;;;;19.43;11.90;;;-2.00;99.90;;;;;;6199371;23;20028;-81
2024/01/28 06:29:27;;;;;;;25.15;12.57;;;-2.00;99.90;;;;;;6204258;23;20433;-81
2024/01/28 06:32:15;;;;;;;20.92;11.20;;;-2.00;99.90;;;;;;6181773;23;20084;-80
2024/01/28 06:35:10;;;;;;;23.77;12.35;;;-1.90;99.90;;;;;;6203898;23;20365;-78
2024/01/28 06:37:59;;;;;;;21.83;11.50;;;-1.70;99.90;;;;;;6203061;23;20020;-79
2024/01/28 06:40:49;;;;;;;22.08;11.90;;;-1.30;99.90;;;;;;6203938;23;20020;-81
2024/01/28 06:43:42;;;;;;;20.15;12.32;;;-1.20;99.90;;;;;;6184154;23;20107;-82
2024/01/28 06:46:29;;;;;;;23.13;12.40;;;-1.00;99.90;;;;;;6182356;23;20028;-81
2024/01/28 06:49:20;;;;;;;27.45;13.20;;;-1.00;99.90;;;;;;6202948;23;20024;-80
2024/01/28 06:52:13;;;;;;;31.08;16.10;;;-1.10;99.90;;;;;;6183397;23;20036;-80
2024/01/28 06:55:05;;;;;;;29.92;16.65;;;-1.20;99.90;;;;;;6210381;23;20071;-80
2024/01/28 06:57:54;;;;;;;28.73;16.05;;;-1.30;99.90;;;;;;6205158;23;20021;-79
2024/01/28 07:00:41;;;;;;;29.30;15.50;;;-1.40;99.90;;;;;;6203798;23;20104;-81
2024/01/28 07:03:37;;;;;;;24.02;14.32;;;-1.60;99.90;;;;;;6210115;23;20098;-79
2024/01/28 07:06:25;;;;;;;27.35;14.02;;;-1.60;99.90;;;;;;6216583;23;20451;-82
2024/01/28 07:09:17;;;;;;;29.50;14.77;;;-1.70;99.90;;;;;;6218049;23;20024;-78
2024/01/28 07:12:12;;;;;;;22.35;12.75;;;-1.80;99.90;;;;;;6187925;23;20371;-81
2024/01/28 07:15:00;;;;;;;;;;;-1.70;99.90;;;;;;6207046;23;20116;-80
2024/01/28 07:17:55;;;;;;;26.80;12.60;;;-1.50;99.90;;;;;;6184277;23;19919;-83
2024/01/28 07:20:48;;;;;;;22.42;12.70;;;-1.30;99.90;;;;;;6208763;23;20103;-81
2024/01/28 07:23:35;;;;;;;25.38;13.77;;;-1.00;99.90;;;;;;6190231;23;20127;-80
2024/01/28 07:26:28;;;;;;;23.50;13.75;;;-0.60;99.90;;;;;;6197247;23;20044;-80
2024/01/28 07:29:21;;;;;;;24.67;15.75;;;-0.40;99.90;;;;;;6211302;23;20111;-81
2024/01/28 07:32:19;;;;;;;31.40;17.35;;;-0.30;99.90;;;;;;6211322;23;20223;-78
2024/01/28 07:35:07;;;;;;;31.02;16.88;;;-0.30;99.90;;;;;;6222062;23;20035;-77
2024/01/28 07:38:04;;;;;;;28.13;17.10;;;-0.20;99.90;;;;;;6190876;23;20044;-81
2024/01/28 07:41:03;;;;;;;34.78;19.00;;;-0.20;99.90;;;;;;6185491;23;20024;-82
2024/01/28 07:44:10;;;;;;;26.33;16.10;;;-0.20;99.90;;;;;;6182261;23;20028;-83
2024/01/28 07:47:07;;;;;;;22.40;13.80;;;-0.10;99.90;;;;;;6204136;23;20571;-81
2024/01/28 07:50:19;;;;;;;26.13;14.88;;;0.10;99.90;;;;;;6203551;23;20021;-82
2024/01/28 07:53:27;;;;;;;21.00;12.20;;;0.50;99.90;;;;;;6204619;23;20154;-80
2024/01/28 07:56:37;;;;;;;24.15;12.73;;;0.80;99.90;;;;;;6202543;23;20028;-81
2024/01/28 08:00:04;;;;;;;21.77;12.43;;;1.30;99.90;;;;;;6138922;23;20051;-83
2024/01/28 08:03:00;;;;;;;27.10;13.52;;;1.50;99.90;;;;;;6185078;23;20044;-83
2024/01/28 08:06:00;;;;;;;24.33;13.32;;;1.50;99.90;;;;;;6217646;23;20678;-83
2024/01/28 08:09:17;;;;;;;21.25;12.15;;;1.50;99.90;;;;;;6200914;23;20750;-83
2024/01/28 08:13:04;;;;;;;;;;;;;;;;;;;;;
2024/01/28 08:16:07;;;;;;;28.77;15.27;;;1.60;99.90;;;;;;6191719;23;20492;-83
2024/01/28 08:22:18;;;;;;;31.77;16.73;;;1.50;99.90;;;;;;6207423;23;20075;-80
2024/01/28 08:25:17;;;;;;;29.42;17.30;;;1.50;99.90;;;;;;6205506;23;20116;-79
2024/01/28 08:28:12;;;;;;;30.75;19.02;;;1.40;99.90;;;;;;6203102;23;20029;-80
2024/01/28 08:31:03;;;;;;;31.35;18.55;;;1.40;99.90;;;;;;6207393;23;20435;-80
2024/01/28 08:34:07;;;;;;;29.50;17.90;;;1.50;99.90;;;;;;6184559;23;20032;-83
2024/01/28 08:37:06;;;;;;;31.60;17.45;;;1.80;99.90;;;;;;6209044;23;20032;-78
2024/01/28 08:40:00;;;;;;;29.85;16.23;;;1.90;99.90;;;;;;6188073;23;20059;-82
2024/01/28 08:43:05;;;;;;;31.08;16.23;;;1.90;99.90;;;;;;6217193;23;20432;-81
2024/01/28 08:45:56;;;;;;;25.02;14.07;;;2.00;99.90;;;;;;6206548;23;20371;-79
2024/01/28 08:48:57;;;;;;;25.73;17.25;;;2.30;99.90;;;;;;6200773;23;20055;-81
2024/01/28 08:51:52;;;;;;;22.58;13.25;;;2.60;99.90;;;;;;6185797;23;20411;-79
2024/01/28 08:54:51;;;;;;;16.52;10.43;;;3.00;59.20;;;;;;6187957;23;20078;-76
2024/01/28 08:57:49;;;;;;;16.35;10.27;;;3.60;99.90;;;;;;6191912;23;20047;-83
2024/01/28 09:00:51;;;;;;;15.65;9.25;;;4.40;1.00;;;;;;6216324;23;20074;-83
2024/01/28 09:03:50;;;;;;;12.52;7.70;;;5.10;99.90;;;;;;6212074;23;20031;-82
2024/01/28 09:06:41;;;;;;;14.73;6.88;;;5.30;99.90;;;;;;6211984;23;20470;-79
2024/01/28 09:09:49;;;;;;;9.57;5.70;;;5.70;99.90;;;;;;6174644;23;20352;-83
2024/01/28 09:13:24;;;;;;;7.25;4.60;;;6.50;99.90;;;;;;6183803;23;20071;-86
2024/01/28 09:16:30;;;;;;;7.90;4.38;;;6.90;1.00;;;;;;6205271;23;20032;-80
2024/01/28 09:19:27;;;;;;;7.60;4.53;;;7.00;99.90;;;;;;6183771;23;20024;-83
2024/01/28 09:22:20;;;;;;;6.35;3.97;;;6.80;97.20;;;;;;6204700;23;20032;-82
2024/01/28 09:25:28;;;;;;;10.65;5.28;;;6.60;1.00;;;;;;6184858;23;20036;-81
2024/01/28 09:28:48;;;;;;;7.53;4.57;;;6.60;1.00;;;;;;6197845;23;20104;-83
2024/01/28 09:31:56;;;;;;;7.50;4.43;;;7.20;1.00;;;;;;6203795;23;20024;-84
2024/01/28 09:35:06;;;;;;;6.45;3.47;;;8.00;99.90;;;;;;6183641;23;20028;-82
2024/01/28 09:38:11;;;;;;;8.95;3.60;;;8.70;99.90;;;;;;6201987;23;20435;-81
2024/01/28 09:41:39;;;;;;;7.55;4.13;;;9.40;99.90;;;;;;6203470;23;20033;-80
2024/01/28 09:44:43;;;;;;;7.28;3.60;;;10.10;99.90;;;;;;6181293;23;20029;-80
2024/01/28 09:47:49;;;;;;;6.90;3.78;;;10.20;99.90;;;;;;6199153;23;20028;-83
2024/01/28 09:51:09;;;;;;;3.95;2.95;;;10.60;99.90;;;;;;6184892;23;20025;-80
2024/01/28 09:54:27;;;;;;;5.50;2.90;;;11.00;99.90;;;;;;6209701;23;20106;-82
2024/01/28 09:57:24;;;;;;;5.15;3.10;;;11.10;99.90;;;;;;6211395;23;20068;-83
2024/01/28 10:00:35;;;;;;;6.72;2.85;;;11.50;99.90;;;;;;6191772;23;20038;-83
2024/01/28 10:03:47;;;;;;;5.97;2.97;;;11.60;99.90;;;;;;6214455;23;20095;-85
2024/01/28 10:07:02;;;;;;;5.68;3.17;;;12.30;99.90;;;;;;6192067;23;20083;-81
2024/01/28 10:10:23;;;;;;;6.25;3.17;;;13.00;99.90;;;;;;6210664;23;20035;-81
2024/01/28 10:13:45;;;;;;;;;;;;;;;;;;;;;
2024/01/28 10:17:29;;;;;;;4.57;2.83;;;14.50;56.70;;;;;;6200175;23;20526;-81
2024/01/28 10:21:07;;;;;;;5.25;3.33;;;15.20;42.10;;;;;;6110339;23;20113;-83
2024/01/28 10:24:41;;;;;;;;;;;;;;;;;;;;;
2024/01/28 10:28:08;;;;;;;6.72;3.33;;;15.60;19.50;;;;;;6213091;23;20052;-83
2024/01/28 10:31:24;;;;;;;3.33;2.25;;;16.00;7.40;;;;;;6206455;23;20033;-82
2024/01/28 10:34:35;;;;;;;5.82;3.00;;;16.60;1.60;;;;;;6200207;23;20024;-82
2024/01/28 10:37:41;;;;;;;5.10;2.65;;;16.90;1.00;;;;;;6181784;23;20515;-80
2024/01/28 10:41:01;;;;;;;3.15;2.22;;;16.90;1.00;;;;;;6182521;23;20025;-84
2024/01/28 10:47:57;;;;;;;2.45;2.00;;;16.70;1.00;;;;;;6198072;23;20035;-81
2024/01/28 10:51:25;;;;;;;3.65;2.25;;;16.50;1.00;;;;;;6210479;23;20020;-84
2024/01/28 10:54:32;;;;;;;3.50;2.65;;;16.70;1.00;;;;;;6213928;23;20160;-81
2024/01/28 10:57:44;;;;;;;5.18;2.05;;;16.90;1.00;;;;;;6170125;23;20032;-82
2024/01/28 11:01:05;;;;;;;3.47;1.95;;;16.30;1.00;;;;;;6202027;23;20104;-81
2024/01/28 11:04:06;;;;;;;2.25;1.42;;;16.60;1.00;;;;;;6206250;22;20029;-82
2024/01/28 11:07:13;;;;;;;2.97;1.73;;;16.00;1.00;;;;;;6211540;23;20075;-78
2024/01/28 11:10:05;;;;;;;3.08;1.83;;;15.40;1.00;;;;;;6196305;23;20399;-80
2024/01/28 11:13:02;;;;;;;2.25;2.00;;;15.30;1.00;;;;;;6203613;23;20363;-81
2024/01/28 11:16:16;;;;;;;2.88;1.70;;;15.60;1.00;;;;;;6206941;23;20060;-83
2024/01/28 11:23:56;;;;;;;1.98;1.70;;;14.80;1.00;;;;;;6215140;23;20013;-81
2024/01/28 11:27:19;;;;;;;3.17;1.50;;;14.40;1.00;;;;;;6226352;23;20016;-82
2024/01/28 11:30:57;;;;;;;;;;;;;;;;;;;;;
2024/01/28 11:34:34;;;;;;;3.30;1.63;;;15.40;1.00;;;;;;6144838;23;20024;-83
2024/01/28 11:38:02;;;;;;;2.03;1.52;;;15.40;1.00;;;;;;6183377;23;20020;-84
2024/01/28 11:42:06;;;;;;;;;;;;;;;;;;;;;
2024/01/28 11:45:31;;;;;;;2.83;1.55;;;16.60;1.00;;;;;;6201375;23;20047;-81
2024/01/28 11:48:32;;;;;;;2.33;1.58;;;17.20;1.00;;;;;;6182197;23;20029;-81
2024/01/28 11:51:39;;;;;;;2.42;1.38;;;17.90;1.00;;;;;;6193595;23;20086;-81
2024/01/28 11:54:51;;;;;;;1.80;1.30;;;18.40;1.00;;;;;;6186665;23;20083;-81
2024/01/28 11:58:10;;;;;;;;;;;;;;;;;;;;;
2024/01/28 12:01:36;;;;;;;2.22;1.67;;;19.90;1.00;;;;;;6170941;23;20358;-82
2024/01/28 12:04:46;;;;;;;1.30;1.15;;;20.20;1.00;;;;;;6199198;23;20025;-83
2024/01/28 12:08:32;;;;;;;5.22;1.73;;;20.80;1.00;;;;;;6186439;23;20028;-82
2024/01/28 12:11:32;;;;;;;2.83;1.35;;;19.90;1.00;;;;;;6203007;23;20106;-81
2024/01/28 12:14:34;;;;;;;3.38;1.15;;;20.40;1.00;;;;;;6203460;23;20028;-82
2024/01/28 12:17:40;;;;;;;2.35;1.23;;;21.10;1.00;;;;;;6186331;23;20083;-81
2024/01/28 12:20:35;;;;;;;1.80;1.33;;;20.90;1.00;;;;;;6207478;23;20075;-81
2024/01/28 12:23:35;;;;;;;;;;;21.30;1.00;;;;;;6202795;23;20032;-80
2024/01/28 12:26:34;;;;;;;2.45;1.48;;;22.00;1.00;;;;;;6204482;23;19916;-80
2024/01/28 12:29:28;;;;;;;2.05;1.00;;;22.90;1.00;;;;;;6192385;23;20028;-80
2024/01/28 12:32:16;;;;;;;1.35;1.10;;;23.70;1.00;;;;;;6213876;23;20024;-79
2024/01/28 12:35:14;;;;;;;1.77;1.20;;;23.80;1.00;;;;;;6214147;23;20295;-80
2024/01/28 12:38:19;;;;;;;1.63;1.40;;;23.30;1.00;;;;;;6214489;23;20028;-80
2024/01/28 12:41:15;;;;;;;1.67;1.30;;;22.20;1.00;;;;;;6215869;23;20029;-79
2024/01/28 12:44:07;;;;;;;3.83;1.40;;;22.00;1.00;;;;;;6216126;23;20058;-81
2024/01/28 12:47:01;;;;;;;2.53;1.27;;;22.50;1.00;;;;;;6213724;23;20038;-78
2024/01/28 12:50:20;;;;;;;1.85;1.50;;;21.80;1.00;;;;;;6214179;23;20032;-81
2024/01/28 12:53:24;;;;;;;2.60;1.40;;;22.10;1.00;;;;;;6186462;23;20025;-80
2024/01/28 12:56:12;;;;;;;1.40;1.10;;;23.30;1.00;;;;;;6184925;23;20024;-79
2024/01/28 12:59:12;;;;;;;1.38;1.17;;;24.00;1.00;;;;;;6202954;23;20028;-78
2024/01/28 13:02:17;;;;;;;2.60;1.20;;;24.40;1.00;;;;;;6219934;23;20028;-83
2024/01/28 13:05:26;;;;;;;1.67;0.98;;;25.10;1.00;;;;;;6208338;23;20083;-80
2024/01/28 13:08:43;;;;;;;3.25;1.20;;;25.30;1.00;;;;;;6187709;23;20102;-79
2024/01/28 13:11:42;;;;;;;1.55;1.02;;;24.30;1.00;;;;;;6210866;23;20484;-80
2024/01/28 13:14:36;;;;;;;1.52;1.20;;;25.00;1.00;;;;;;6206635;23;20423;-79
2024/01/28 13:17:37;;;;;;;2.45;1.20;;;25.80;1.00;;;;;;6202820;23;20025;-79
2024/01/28 13:20:38;;;;;;;2.05;1.20;;;25.40;1.00;;;;;;6206723;23;20423;-81
2024/01/28 13:23:32;;;;;;;1.20;1.10;;;25.30;1.00;;;;;;6207758;23;20039;-80
2024/01/28 13:26:22;;;;;;;2.08;1.17;;;24.20;1.00;;;;;;6183683;23;20529;-80
2024/01/28 13:29:18;;;;;;;1.10;1.00;;;23.40;1.00;;;;;;6202328;23;20258;-79
2024/01/28 13:32:18;;;;;;;1.67;1.30;;;23.00;1.00;;;;;;6216193;23;20040;-81
2024/01/28 13:35:18;;;;;;;1.00;0.90;;;23.00;1.00;;;;;;6204753;23;20028;-80
2024/01/28 13:38:26;;;;;;;3.60;1.17;;;24.20;1.00;;;;;;6184065;23;20028;-79
2024/01/28 13:41:49;;;;;;;2.42;1.20;;;25.10;1.00;;;;;;6206300;23;20032;-80
2024/01/28 13:44:44;;;;;;;1.40;1.23;;;25.30;1.00;;;;;;6227456;22;20099;-79
2024/01/28 13:47:38;;;;;;;1.83;1.10;;;24.40;1.00;;;;;;6190623;23;20101;-79
2024/01/28 13:50:35;;;;;;;1.35;1.05;;;24.70;1.00;;;;;;6205924;23;20491;-80
2024/01/28 13:53:47;;;;;;;1.20;1.05;;;23.60;1.00;;;;;;6205448;23;20032;-79
2024/01/28 13:56:40;;;;;;;1.30;0.88;;;23.30;1.00;;;;;;6209636;23;20040;-79
2024/01/28 13:59:40;;;;;;;;;;;;;;;;;;;;;
2024/01/28 14:02:39;;;;;;;1.60;1.10;;;25.30;1.00;;;;;;6201770;23;20055;-79
2024/01/28 14:06:10;;;;;;;1.02;0.80;;;25.50;1.00;;;;;;6178703;23;20110;-78
2024/01/28 14:09:06;;;;;;;1.85;1.23;;;25.70;1.00;;;;;;6204991;23;20056;-83
2024/01/28 14:12:04;;;;;;;1.00;0.90;;;25.40;1.00;;;;;;6180939;23;20032;-81
2024/01/28 14:15:00;;;;;;;1.27;0.80;;;25.20;1.00;;;;;;6202912;23;20032;-77
2024/01/28 14:18:10;;;;;;;0.95;0.82;;;25.20;1.00;;;;;;6210545;23;20091;-80
2024/01/28 14:21:14;;;;;;;4.03;1.75;;;25.20;1.00;;;;;;6213925;23;20032;-81
2024/01/28 14:24:16;;;;;;;11.23;4.82;;;24.60;1.00;;;;;;6215282;23;20077;-80
2024/01/28 14:27:10;;;;;;;1.65;1.35;;;24.30;1.00;;;;;;6207750;23;20025;-80
2024/01/28 14:30:19;;;;;;;1.58;1.27;;;23.60;1.00;;;;;;6187183;23;20345;-79
2024/01/28 14:33:29;;;;;;;2.33;1.50;;;23.20;1.00;;;;;;6206944;23;20684;-80
2024/01/28 14:36:33;;;;;;;1.63;1.27;;;22.90;1.00;;;;;;6206877;23;20043;-79
2024/01/28 14:39:38;;;;;;;;;;;;;;;;;;;;;
2024/01/28 14:43:05;;;;;;;2.50;1.33;;;22.90;1.00;;;;;;6210311;23;20678;-81
2024/01/28 14:46:18;;;;;;;2.90;1.48;;;23.10;1.00;;;;;;6205275;23;20469;-81
2024/01/28 14:49:10;;;;;;;3.92;1.70;;;22.70;1.00;;;;;;6193663;23;20032;-81
2024/01/28 14:52:07;;;;;;;2.33;1.50;;;22.40;1.00;;;;;;6188868;23;20039;-79
2024/01/28 14:55:07;;;;;;;2.17;1.45;;;22.90;1.00;;;;;;6212249;23;20024;-80
2024/01/28 14:58:00;;;;;;;2.90;1.45;;;22.80;1.00;;;;;;6205943;23;20048;-80
2024/01/28 15:00:53;;;;;;;3.10;1.65;;;22.40;1.00;;;;;;6206489;23;20153;-79
2024/01/28 15:03:45;;;;;;;4.28;2.28;;;22.10;1.00;;;;;;6200861;23;20085;-80
2024/01/28 15:06:45;;;;;;;1.73;1.58;;;21.80;1.00;;;;;;6212641;23;20012;-79
2024/01/28 15:09:44;;;;;;;2.40;1.88;;;21.60;1.00;;;;;;6224448;23;20028;-79
2024/01/28 15:12:45;;;;;;;2.33;1.70;;;21.30;1.00;;;;;;6214749;23;20029;-79
2024/01/28 15:15:35;;;;;;;3.33;1.70;;;21.00;1.00;;;;;;6214425;23;20537;-80
2024/01/28 15:18:26;;;;;;;3.47;1.90;;;20.50;1.00;;;;;;6196576;23;20094;-79
2024/01/28 15:21:16;;;;;;;2.53;1.83;;;19.90;1.00;;;;;;6191694;23;20052;-81
2024/01/28 15:24:22;;;;;;;2.50;1.98;;;19.50;1.00;;;;;;6212924;23;20103;-80
2024/01/28 15:27:18;;;;;;;3.22;2.20;;;18.70;1.00;;;;;;6214211;23;20321;-79
2024/01/28 15:30:09;;;;;;;3.67;2.20;;;18.10;1.00;;;;;;6212941;23;20050;-79
2024/01/28 15:33:00;;;;;;;2.38;1.90;;;17.30;1.00;;;;;;6206243;23;20024;-80
2024/01/28 15:35:55;;;;;;;3.27;2.40;;;16.50;1.00;;;;;;6184028;23;20025;-82
2024/01/28 15:38:46;;;;;;;3.10;2.28;;;16.10;1.00;;;;;;6203700;23;20514;-80
2024/01/28 15:41:35;;;;;;;3.10;2.38;;;15.30;1.00;;;;;;6204313;23;20128;-82
2024/01/28 15:44:22;;;;;;;3.63;2.42;;;14.80;1.00;;;;;;6182485;23;20424;-80
2024/01/28 15:47:48;;;;;;;4.65;2.72;;;14.40;1.00;;;;;;6178266;23;20103;-82
2024/01/28 15:50:54;;;;;;;3.10;2.55;;;13.70;1.00;;;;;;6205895;23;20024;-84